Terminal Aerodrome Forecast
Issued by NWS

Home | Current Version | Previous Version | Text Only | Print | Product List | Glossary On
Versions: 1 2 3 4 5 6 7 8 9 10 11 12 13 14 15
000
FTUS42 KJAX 050520
TAFVQQ
TAF
KVQQ 050520Z 0506/0606 05002KT P6SM SCT040 BKN250
     FM051400 07010G15KT P6SM SCT040 BKN250
     FM051600 08014G21KT P6SM BKN040 BKN250
     FM060100 05004KT P6SM SCT040 BKN250=

USA.gov is the U.S. government's official web portal to all federal, state and local government web resources and services.